createdAt,value
2019-01-12T00:00:47.844Z,1012.84
2019-01-12T00:01:53.281Z,1012.83
2019-01-12T00:03:51.688Z,1012.82
2019-01-12T00:04:57.195Z,1012.78
2019-01-12T00:06:55.596Z,1012.71
2019-01-12T00:08:01.117Z,1012.72
2019-01-12T00:09:59.612Z,1012.74
2019-01-12T00:11:05.035Z,1012.75
2019-01-12T00:13:03.433Z,1012.67
2019-01-12T00:14:08.951Z,1012.72
2019-01-12T00:16:07.361Z,1012.68
2019-01-12T00:17:12.882Z,1012.65
2019-01-12T00:19:11.278Z,1012.69
2019-01-12T00:20:16.790Z,1012.69
2019-01-12T00:22:15.180Z,1012.64
2019-01-12T00:23:20.716Z,1012.66
2019-01-12T00:25:19.117Z,1012.66
2019-01-12T00:26:24.626Z,1012.64
2019-01-12T00:28:23.016Z,1012.64
2019-01-12T00:29:28.542Z,1012.64
2019-01-12T00:31:26.948Z,1012.66
2019-01-12T00:32:32.463Z,1012.58
2019-01-12T00:34:30.870Z,1012.54
2019-01-12T00:35:36.376Z,1012.59
2019-01-12T00:37:34.780Z,1012.62
2019-01-12T00:38:40.308Z,1012.60
2019-01-12T00:40:38.723Z,1012.56
2019-01-12T00:41:44.229Z,1012.56
2019-01-12T00:43:42.624Z,1012.55
2019-01-12T00:44:48.147Z,1012.47
2019-01-12T00:46:46.550Z,1012.51
2019-01-12T00:47:52.068Z,1012.56
2019-01-12T00:49:50.471Z,1012.49
2019-01-12T00:50:55.986Z,1012.49
2019-01-12T00:52:55.226Z,1012.46
2019-01-12T00:54:00.754Z,1012.49
2019-01-12T00:55:59.160Z,1012.53
2019-01-12T00:57:04.673Z,1012.43
2019-01-12T00:59:03.062Z,1012.43
2019-01-12T01:00:08.593Z,1012.46
2019-01-12T01:02:07.079Z,1012.43
2019-01-12T01:03:12.510Z,1012.44
2019-01-12T01:05:10.920Z,1012.46
2019-01-12T01:06:16.437Z,1012.45
2019-01-12T01:08:14.828Z,1012.45
2019-01-12T01:09:20.349Z,1012.38
2019-01-12T01:11:18.840Z,1012.47
2019-01-12T01:12:24.264Z,1012.41
2019-01-12T01:14:22.760Z,1012.37
2019-01-12T01:15:28.193Z,1012.48
2019-01-12T01:17:26.667Z,1012.47
2019-01-12T01:18:32.108Z,1012.45
2019-01-12T01:20:30.516Z,1012.51
2019-01-12T01:21:36.035Z,1012.50
2019-01-12T01:23:34.504Z,1012.46
2019-01-12T01:24:45.840Z,1012.42
2019-01-12T01:26:38.436Z,1012.42
2019-01-12T01:27:43.865Z,1012.41
2019-01-12T01:29:42.355Z,1012.42
2019-01-12T01:30:47.781Z,1012.42
2019-01-12T01:32:46.169Z,1012.45
2019-01-12T01:33:51.694Z,1012.45
2019-01-12T01:35:50.101Z,1012.44
2019-01-12T01:36:55.617Z,1012.44
2019-01-12T01:38:54.097Z,1012.46
2019-01-12T01:39:59.533Z,1012.45
2019-01-12T01:41:58.019Z,1012.47
2019-01-12T01:43:03.445Z,1012.47
2019-01-12T01:45:01.856Z,1012.48
2019-01-12T01:46:07.369Z,1012.47
2019-01-12T01:48:05.761Z,1012.50
2019-01-12T01:49:11.285Z,1012.52
2019-01-12T01:51:09.694Z,1012.50
2019-01-12T01:52:15.204Z,1012.48
2019-01-12T01:54:13.605Z,1012.52
2019-01-12T01:55:19.130Z,1012.50
2019-01-12T01:57:17.533Z,1012.48
2019-01-12T01:58:23.048Z,1012.46
2019-01-12T02:00:21.450Z,1012.51
2019-01-12T02:01:26.965Z,1012.52
2019-01-12T02:03:25.362Z,1012.51
2019-01-12T02:04:30.883Z,1012.51
2019-01-12T02:06:29.293Z,1012.49
2019-01-12T02:07:34.852Z,1012.51
2019-01-12T02:09:33.196Z,1012.48
2019-01-12T02:10:38.731Z,1012.45
2019-01-12T02:12:37.183Z,1012.44
2019-01-12T02:13:42.640Z,1012.48
2019-01-12T02:15:41.050Z,1012.43
2019-01-12T02:16:46.558Z,1012.41
2019-01-12T02:18:44.962Z,1012.46
2019-01-12T02:19:50.474Z,1012.33
2019-01-12T02:21:48.880Z,1012.33
2019-01-12T02:22:54.402Z,1012.26
2019-01-12T02:24:59.773Z,1012.29
2019-01-12T02:25:58.320Z,1012.32
2019-01-12T02:27:56.795Z,1012.30
2019-01-12T02:29:02.277Z,1012.28
2019-01-12T02:31:00.645Z,1012.30
2019-01-12T02:32:06.153Z,1012.31
2019-01-12T02:34:04.545Z,1012.26
2019-01-12T02:35:10.075Z,1012.30
2019-01-12T02:37:08.568Z,1012.25
2019-01-12T02:38:13.990Z,1012.26
2019-01-12T02:40:12.402Z,1012.27
2019-01-12T02:41:17.914Z,1012.25
2019-01-12T02:43:16.309Z,1012.23
2019-01-12T02:44:21.835Z,1012.21
2019-01-12T02:46:20.245Z,1012.17
2019-01-12T02:47:25.760Z,1012.16
2019-01-12T02:49:24.147Z,1012.08
2019-01-12T02:50:29.670Z,1012.13
2019-01-12T02:52:28.076Z,1012.07
2019-01-12T02:53:33.588Z,1012.11
2019-01-12T02:55:31.998Z,1012.05
2019-01-12T02:56:37.512Z,1012.04
2019-01-12T02:58:35.909Z,1011.99
2019-01-12T02:59:41.430Z,1011.99
2019-01-12T03:01:39.836Z,1012.01
2019-01-12T03:02:45.351Z,1011.98
2019-01-12T03:04:43.751Z,1011.95
2019-01-12T03:05:49.273Z,1012.00
2019-01-12T03:07:47.690Z,1012.03
2019-01-12T03:08:53.198Z,1012.02
2019-01-12T03:10:51.616Z,1011.99
2019-01-12T03:11:57.124Z,1011.95
2019-01-12T03:13:55.512Z,1011.93
2019-01-12T03:15:01.042Z,1011.91
2019-01-12T03:16:59.443Z,1011.84
2019-01-12T03:18:04.962Z,1011.86
2019-01-12T03:20:03.347Z,1011.86
2019-01-12T03:21:08.881Z,1011.82
2019-01-12T03:23:07.284Z,1011.75
2019-01-12T03:24:12.797Z,1011.77
2019-01-12T03:26:11.204Z,1011.70
2019-01-12T03:27:16.720Z,1011.67
2019-01-12T03:29:15.104Z,1011.66
2019-01-12T03:30:20.639Z,1011.61
2019-01-12T03:32:19.153Z,1011.63
2019-01-12T03:33:24.557Z,1011.65
2019-01-12T03:35:22.953Z,1011.61
2019-01-12T03:36:28.475Z,1011.55
2019-01-12T03:38:27.083Z,1011.53
2019-01-12T03:39:32.396Z,1011.52
2019-01-12T03:41:30.802Z,1011.50
2019-01-12T03:42:36.319Z,1011.43
2019-01-12T03:44:34.712Z,1011.54
2019-01-12T03:45:40.236Z,1011.49
2019-01-12T03:47:38.639Z,1011.51
2019-01-12T03:48:44.153Z,1011.47
2019-01-12T03:50:42.634Z,1011.43
2019-01-12T03:51:48.079Z,1011.42
2019-01-12T03:53:46.571Z,1011.38
2019-01-12T03:54:51.990Z,1011.40
2019-01-12T03:56:50.407Z,1011.37
2019-01-12T03:57:55.924Z,1011.31
2019-01-12T03:59:54.403Z,1011.30
2019-01-12T04:00:59.839Z,1011.33
2019-01-12T04:02:58.248Z,1011.33
2019-01-12T04:04:03.764Z,1011.34
2019-01-12T04:06:02.253Z,1011.31
2019-01-12T04:07:07.680Z,1011.33
2019-01-12T04:09:06.075Z,1011.35
2019-01-12T04:10:11.607Z,1011.33
2019-01-12T04:12:10.011Z,1011.33
2019-01-12T04:13:15.520Z,1011.32
2019-01-12T04:15:13.945Z,1011.36
2019-01-12T04:16:19.450Z,1011.35
2019-01-12T04:18:17.853Z,1011.34
2019-01-12T04:19:23.363Z,1011.34
2019-01-12T04:21:21.857Z,1011.29
2019-01-12T04:22:27.285Z,1011.32
2019-01-12T04:24:25.674Z,1011.30
2019-01-12T04:25:33.914Z,1011.27
2019-01-12T04:27:29.612Z,1011.29
2019-01-12T04:28:35.128Z,1011.26
2019-01-12T04:30:33.607Z,1011.22
2019-01-12T04:31:39.049Z,1011.25
2019-01-12T04:33:37.453Z,1011.15
2019-01-12T04:34:42.966Z,1011.09
2019-01-12T04:36:41.381Z,1011.18
2019-01-12T04:37:46.896Z,1011.10
2019-01-12T04:39:45.286Z,1011.10
2019-01-12T04:40:50.818Z,1011.05
2019-01-12T04:42:49.220Z,1011.16
2019-01-12T04:43:54.740Z,1011.07
2019-01-12T04:45:53.222Z,1011.00
2019-01-12T04:46:58.651Z,1011.03
2019-01-12T04:48:57.060Z,1011.03
2019-01-12T04:50:02.579Z,1011.04
2019-01-12T04:52:00.987Z,1010.98
2019-01-12T04:53:06.499Z,1010.97
2019-01-12T04:55:04.893Z,1010.98
2019-01-12T04:56:10.422Z,1011.00
2019-01-12T04:58:08.827Z,1010.93
2019-01-12T04:59:14.342Z,1010.96
2019-01-12T05:01:12.737Z,1010.96
2019-01-12T05:02:18.259Z,1010.91
2019-01-12T05:04:16.756Z,1010.91
2019-01-12T05:05:22.179Z,1010.90
2019-01-12T05:07:20.589Z,1010.94
2019-01-12T05:08:26.099Z,1010.92
2019-01-12T05:10:24.578Z,1010.96
2019-01-12T05:11:30.026Z,1010.89
2019-01-12T05:13:28.432Z,1010.91
2019-01-12T05:14:33.944Z,1010.86
2019-01-12T05:16:32.357Z,1010.88
2019-01-12T05:17:37.867Z,1010.89
2019-01-12T05:19:36.350Z,1010.87
2019-01-12T05:20:41.794Z,1010.88
2019-01-12T05:22:40.195Z,1010.87
2019-01-12T05:23:45.714Z,1010.82
2019-01-12T05:25:48.855Z,1010.84
2019-01-12T05:26:49.631Z,1010.74
2019-01-12T05:28:48.888Z,1010.82
2019-01-12T05:29:54.402Z,1010.82
2019-01-12T05:31:52.813Z,1010.76
2019-01-12T05:32:58.331Z,1010.84
2019-01-12T05:34:56.724Z,1010.84
2019-01-12T05:36:02.249Z,1010.83
2019-01-12T05:38:00.741Z,1010.84
2019-01-12T05:39:06.168Z,1010.84
2019-01-12T05:41:04.660Z,1010.83
2019-01-12T05:42:10.086Z,1010.85
2019-01-12T05:44:08.502Z,1010.79
2019-01-12T05:45:14.009Z,1010.82
2019-01-12T05:47:12.411Z,1010.84
2019-01-12T05:48:17.929Z,1010.81
2019-01-12T05:50:16.410Z,1010.78
2019-01-12T05:51:21.851Z,1010.79
2019-01-12T05:53:20.343Z,1010.75
2019-01-12T05:54:25.777Z,1010.78
2019-01-12T05:56:24.258Z,1010.76
2019-01-12T05:57:29.692Z,1010.77
2019-01-12T05:59:28.098Z,1010.78
2019-01-12T06:00:33.614Z,1010.78
2019-01-12T06:02:32.031Z,1010.79
2019-01-12T06:03:37.542Z,1010.77
2019-01-12T06:05:36.022Z,1010.76
2019-01-12T06:06:41.463Z,1010.77
2019-01-12T06:08:39.955Z,1010.72
2019-01-12T06:09:45.388Z,1010.76
2019-01-12T06:11:43.782Z,1010.66
2019-01-12T06:12:49.312Z,1010.67
2019-01-12T06:14:47.810Z,1010.65
2019-01-12T06:15:53.224Z,1010.68
2019-01-12T06:17:51.724Z,1010.67
2019-01-12T06:18:57.155Z,1010.63
2019-01-12T06:20:55.548Z,1010.61
2019-01-12T06:22:01.074Z,1010.59
2019-01-12T06:23:59.480Z,1010.66
2019-01-12T06:25:04.995Z,1010.63
2019-01-12T06:27:03.481Z,1010.63
2019-01-12T06:28:08.920Z,1010.59
2019-01-12T06:30:07.323Z,1010.66
2019-01-12T06:31:12.839Z,1010.54
2019-01-12T06:33:11.241Z,1010.54
2019-01-12T06:34:16.760Z,1010.57
2019-01-12T06:36:15.150Z,1010.54
2019-01-12T06:37:20.677Z,1010.61
2019-01-12T06:39:19.089Z,1010.52
2019-01-12T06:40:24.598Z,1010.55
2019-01-12T06:42:23.014Z,1010.49
2019-01-12T06:43:28.523Z,1010.47
2019-01-12T06:45:26.920Z,1010.45
2019-01-12T06:46:32.453Z,1010.43
2019-01-12T06:48:30.863Z,1010.42
2019-01-12T06:49:36.373Z,1010.37
2019-01-12T06:51:34.858Z,1010.45
2019-01-12T06:52:40.295Z,1010.35
2019-01-12T06:54:38.793Z,1010.43
2019-01-12T06:55:44.226Z,1010.37
2019-01-12T06:57:42.642Z,1010.37
2019-01-12T06:58:48.152Z,1010.35
2019-01-12T07:00:46.544Z,1010.33
2019-01-12T07:01:52.078Z,1010.36
2019-01-12T07:03:50.483Z,1010.33
2019-01-12T07:04:56.004Z,1010.32
2019-01-12T07:06:54.387Z,1010.32
2019-01-12T07:07:59.923Z,1010.34
2019-01-12T07:09:58.411Z,1010.36
2019-01-12T07:11:03.843Z,1010.32
2019-01-12T07:13:02.247Z,1010.32
2019-01-12T07:14:07.758Z,1010.31
2019-01-12T07:16:06.242Z,1010.32
2019-01-12T07:17:11.688Z,1010.29
2019-01-12T07:19:10.094Z,1010.28
2019-01-12T07:20:15.614Z,1010.22
2019-01-12T07:22:14.092Z,1010.21
2019-01-12T07:23:19.535Z,1010.20
2019-01-12T07:25:17.936Z,1010.20
2019-01-12T07:26:23.454Z,1010.10
2019-01-12T07:28:21.866Z,1010.09
2019-01-12T07:29:27.378Z,1010.06
2019-01-12T07:31:25.770Z,1010.05
2019-01-12T07:32:31.294Z,1010.05
2019-01-12T07:34:29.784Z,1009.99
2019-01-12T07:35:35.212Z,1009.97
2019-01-12T07:37:33.611Z,1010.01
2019-01-12T07:38:39.141Z,1009.93
2019-01-12T07:40:37.549Z,1009.99
2019-01-12T07:41:43.066Z,1009.95
2019-01-12T07:43:41.471Z,1009.93
2019-01-12T07:44:46.988Z,1009.90
2019-01-12T07:46:45.382Z,1009.88
2019-01-12T07:47:50.910Z,1009.84
2019-01-12T07:49:49.323Z,1009.88
2019-01-12T07:50:54.838Z,1009.91
2019-01-12T07:52:53.259Z,1009.81
2019-01-12T07:53:58.755Z,1009.83
2019-01-12T07:55:57.154Z,1009.84
2019-01-12T07:57:02.684Z,1009.82
2019-01-12T07:59:01.091Z,1009.84
2019-01-12T08:00:06.609Z,1009.77
2019-01-12T08:02:04.999Z,1009.79
2019-01-12T08:03:10.524Z,1009.76
2019-01-12T08:05:08.936Z,1009.72
2019-01-12T08:06:14.445Z,1009.68
2019-01-12T08:08:12.854Z,1009.67
2019-01-12T08:09:18.369Z,1009.72
2019-01-12T08:11:16.851Z,1009.72
2019-01-12T08:12:22.295Z,1009.73
2019-01-12T08:14:20.695Z,1009.68
2019-01-12T08:15:26.211Z,1009.69
2019-01-12T08:17:24.607Z,1009.67
2019-01-12T08:18:30.136Z,1009.68
2019-01-12T08:20:28.551Z,1009.58
2019-01-12T08:21:34.060Z,1009.64
2019-01-12T08:23:32.470Z,1009.56
2019-01-12T08:24:37.989Z,1009.56
2019-01-12T08:26:36.378Z,1009.56
2019-01-12T08:27:41.904Z,1009.50
2019-01-12T08:29:40.321Z,1009.63
2019-01-12T08:30:45.830Z,1009.62
2019-01-12T08:32:44.224Z,1009.49
2019-01-12T08:33:49.753Z,1009.57
2019-01-12T08:35:48.155Z,1009.49
2019-01-12T08:36:53.676Z,1009.51
2019-01-12T08:38:52.167Z,1009.48
2019-01-12T08:39:57.596Z,1009.48
2019-01-12T08:41:55.989Z,1009.42
2019-01-12T08:43:01.523Z,1009.40
2019-01-12T08:44:59.928Z,1009.36
2019-01-12T08:46:05.444Z,1009.34
2019-01-12T08:48:03.835Z,1009.34
2019-01-12T08:49:09.368Z,1009.35
2019-01-12T08:51:07.777Z,1009.39
2019-01-12T08:52:13.288Z,1009.34
2019-01-12T08:54:11.695Z,1009.39
2019-01-12T08:55:17.209Z,1009.32
2019-01-12T08:57:15.600Z,1009.32
2019-01-12T08:58:21.130Z,1009.34
2019-01-12T09:00:20.129Z,1009.28
2019-01-12T09:01:25.050Z,1009.24
2019-01-12T09:03:23.441Z,1009.25
2019-01-12T09:04:28.973Z,1009.22
2019-01-12T09:06:27.384Z,1009.17
2019-01-12T09:07:32.896Z,1009.16
2019-01-12T09:09:31.301Z,1009.16
2019-01-12T09:10:36.829Z,1009.13
2019-01-12T09:12:35.792Z,1009.10
2019-01-12T09:13:40.743Z,1009.12
2019-01-12T09:15:39.143Z,1009.12
2019-01-12T09:16:44.657Z,1009.10
2019-01-12T09:18:43.066Z,1009.10
2019-01-12T09:19:48.583Z,1009.04
2019-01-12T09:21:46.975Z,1008.96
2019-01-12T09:22:52.506Z,1008.88
2019-01-12T09:24:51.004Z,1008.95
2019-01-12T09:25:56.434Z,1008.91
2019-01-12T09:27:54.820Z,1008.91
2019-01-12T09:29:00.346Z,1008.80
2019-01-12T09:30:58.765Z,1008.87
2019-01-12T09:32:04.271Z,1008.85
2019-01-12T09:34:02.773Z,1008.84
2019-01-12T09:35:08.197Z,1008.76
2019-01-12T09:37:06.590Z,1008.77
2019-01-12T09:38:12.123Z,1008.80
2019-01-12T09:40:10.523Z,1008.82
2019-01-12T09:41:16.038Z,1008.72
2019-01-12T09:43:14.425Z,1008.67
2019-01-12T09:44:19.962Z,1008.70
2019-01-12T09:46:18.375Z,1008.61
2019-01-12T09:47:23.890Z,1008.59
2019-01-12T09:49:22.379Z,1008.56
2019-01-12T09:50:27.814Z,1008.52
2019-01-12T09:52:26.207Z,1008.54
2019-01-12T09:53:31.736Z,1008.48
2019-01-12T09:55:30.147Z,1008.49
2019-01-12T09:56:35.667Z,1008.44
2019-01-12T09:58:34.052Z,1008.25
2019-01-12T09:59:39.585Z,1008.39
2019-01-12T10:01:38.013Z,1008.33
2019-01-12T10:02:43.507Z,1008.28
2019-01-12T10:04:42.017Z,1008.21
2019-01-12T10:05:47.432Z,1008.20
2019-01-12T10:07:45.834Z,1008.15
